Time;durP1;ratioP1;P1;durP2;ratioP2;P2;SDS_P1;SDS_P2;PMS_P1;PMS_P2;Temp;Humidity;BMP_temperature;BMP_pressure;BME280_temperature;BME280_humidity;BME280_pressure;Samples;Min_cycle;Max_cycle;Signal;HPM_P1;HPM_P2
2022/10/07 00:00:15;;;;;;;18.08;2.47;;;8.90;99.90;;;;;;5054779;28;20056;-24
2022/10/07 00:02:42;;;;;;;12.43;3.55;;;9.10;99.90;;;;;;5055930;28;20044;-24
2022/10/07 00:05:08;;;;;;;17.13;3.35;;;9.10;99.90;;;;;;5054951;28;20384;-25
2022/10/07 00:07:34;;;;;;;9.38;2.22;;;9.00;99.90;;;;;;5056376;28;20044;-24
2022/10/07 00:09:59;;;;;;;16.67;1.90;;;9.00;99.90;;;;;;5055810;28;20119;-24
2022/10/07 00:12:25;;;;;;;12.73;3.47;;;9.10;99.90;;;;;;5054558;28;20049;-24
2022/10/07 00:14:51;;;;;;;15.85;2.50;;;9.00;99.90;;;;;;5055682;28;20084;-24
2022/10/07 00:17:17;;;;;;;16.48;2.33;;;9.00;99.90;;;;;;5054713;28;20088;-24
2022/10/07 00:19:43;;;;;;;12.50;2.22;;;9.00;99.90;;;;;;5055665;28;20099;-24
2022/10/07 00:22:08;;;;;;;14.68;1.90;;;8.90;99.90;;;;;;5055549;28;20049;-24
2022/10/07 00:24:34;;;;;;;16.20;2.75;;;8.80;99.90;;;;;;5055166;28;20041;-24
2022/10/07 00:27:00;;;;;;;11.05;2.00;;;8.80;99.90;;;;;;5055923;28;20514;-24
2022/10/07 00:29:26;;;;;;;19.23;2.38;;;8.80;99.90;;;;;;5054298;28;20049;-24
2022/10/07 00:31:53;;;;;;;16.70;2.15;;;8.70;99.90;;;;;;5053597;28;20045;-24
2022/10/07 00:34:19;;;;;;;12.05;2.25;;;8.70;99.90;;;;;;5055178;28;20044;-24
2022/10/07 00:36:45;;;;;;;10.57;2.45;;;8.80;99.90;;;;;;5055305;28;20045;-25
2022/10/07 00:39:14;;;;;;;10.20;2.45;;;8.90;99.90;;;;;;5055766;28;20049;-24
2022/10/07 00:41:50;;;;;;;8.60;1.92;;;8.90;99.90;;;;;;5055015;28;20388;-24
2022/10/07 00:44:31;;;;;;;11.00;2.53;;;9.00;99.90;;;;;;5055013;28;20059;-24
2022/10/07 00:47:03;;;;;;;12.52;2.53;;;9.00;99.90;;;;;;5055322;28;20057;-24
2022/10/07 00:49:34;;;;;;;32.00;4.10;;;8.90;99.90;;;;;;5055054;28;20043;-24
2022/10/07 00:52:00;;;;;;;13.45;2.88;;;9.00;99.90;;;;;;5054094;28;20059;-24
2022/10/07 00:54:25;;;;;;;16.77;2.63;;;9.00;99.90;;;;;;5054975;28;20132;-24
2022/10/07 00:56:51;;;;;;;15.18;3.00;;;9.00;99.90;;;;;;5054854;28;20449;-24
2022/10/07 00:59:19;;;;;;;12.93;2.90;;;9.00;99.90;;;;;;5054738;28;20037;-24
2022/10/07 01:01:45;;;;;;;10.70;2.70;;;9.00;99.90;;;;;;5053621;28;20056;-24
2022/10/07 01:04:13;;;;;;;14.20;2.67;;;9.00;99.90;;;;;;5054745;28;20041;-24
2022/10/07 01:06:40;;;;;;;11.10;2.10;;;8.90;99.90;;;;;;5054644;28;20037;-25
2022/10/07 01:09:07;;;;;;;10.43;2.40;;;8.90;99.90;;;;;;5037900;28;20044;-25
2022/10/07 01:11:42;;;;;;;9.80;3.95;;;8.90;99.90;;;;;;5053425;28;20132;-24
2022/10/07 01:14:38;;;;;;;11.65;2.33;;;8.80;99.90;;;;;;5054884;28;20049;-24
2022/10/07 01:17:24;;;;;;;14.43;2.95;;;8.80;99.90;;;;;;5053577;28;20048;-24
2022/10/07 01:20:00;;;;;;;12.10;2.00;;;8.70;99.90;;;;;;5055129;28;20099;-24
2022/10/07 01:22:55;;;;;;;12.88;2.50;;;8.70;99.90;;;;;;5054477;28;20053;-24
2022/10/07 01:25:40;;;;;;;16.90;2.92;;;8.60;99.90;;;;;;5035024;28;20054;-24
2022/10/07 01:28:07;;;;;;;9.07;2.25;;;8.60;99.90;;;;;;5054255;28;20037;-24
2022/10/07 01:30:39;;;;;;;14.05;3.03;;;8.60;99.90;;;;;;5054241;28;20098;-24
2022/10/07 01:33:13;;;;;;;14.15;2.55;;;8.70;99.90;;;;;;5054268;28;20041;-24
2022/10/07 01:35:41;;;;;;;9.55;2.40;;;8.70;99.90;;;;;;5054000;28;20483;-24
2022/10/07 01:38:09;;;;;;;15.27;2.78;;;8.60;99.90;;;;;;5053443;28;20055;-25
2022/10/07 01:40:48;;;;;;;14.20;3.13;;;8.60;99.90;;;;;;5053747;28;20429;-25
2022/10/07 01:43:18;;;;;;;11.95;2.85;;;8.60;99.90;;;;;;5053157;28;20104;-24
2022/10/07 01:45:47;;;;;;;12.63;3.20;;;8.60;99.90;;;;;;5054289;28;20056;-24
2022/10/07 01:48:14;;;;;;;18.45;3.13;;;8.60;99.90;;;;;;5053905;28;20084;-24
2022/10/07 01:50:40;;;;;;;9.05;3.22;;;8.50;99.90;;;;;;5053930;28;20055;-24
2022/10/07 01:53:17;;;;;;;13.85;2.78;;;8.60;99.90;;;;;;5053886;28;20049;-24
2022/10/07 01:56:28;;;;;;;12.85;2.72;;;8.40;99.90;;;;;;5053749;28;20135;-24
2022/10/07 01:58:56;;;;;;;8.88;2.80;;;8.40;99.90;;;;;;5052884;28;20394;-24
2022/10/07 02:01:46;;;;;;;9.20;2.72;;;8.30;99.90;;;;;;5053622;28;20084;-24
2022/10/07 02:04:36;;;;;;;16.30;3.42;;;8.30;99.90;;;;;;5052842;28;20446;-24
2022/10/07 02:07:13;;;;;;;13.70;2.90;;;8.30;99.90;;;;;;5054278;28;20067;-24
2022/10/07 02:10:16;;;;;;;9.82;3.17;;;8.30;99.90;;;;;;5054297;28;20041;-24
2022/10/07 02:12:48;;;;;;;18.08;4.05;;;8.30;99.90;;;;;;5054454;28;20044;-24
2022/10/07 02:16:09;;;;;;;19.13;3.20;;;8.30;99.90;;;;;;5053664;28;20071;-24
2022/10/07 02:18:38;;;;;;;11.65;3.42;;;8.40;99.90;;;;;;5041361;28;20063;-24
2022/10/07 02:21:06;;;;;;;17.02;3.72;;;8.30;99.90;;;;;;5052903;28;20519;-24
2022/10/07 02:23:35;;;;;;;12.75;3.72;;;8.40;99.90;;;;;;5053592;28;20049;-24
2022/10/07 02:26:03;;;;;;;12.25;3.92;;;8.40;99.90;;;;;;5053501;28;20056;-24
2022/10/07 02:28:31;;;;;;;11.20;3.33;;;8.50;99.90;;;;;;5035665;28;20049;-24
2022/10/07 02:31:02;;;;;;;16.92;4.22;;;8.40;99.90;;;;;;5052822;28;20056;-24
2022/10/07 02:33:29;;;;;;;13.73;3.28;;;8.50;99.90;;;;;;5053463;28;20037;-24
2022/10/07 02:36:00;;;;;;;18.50;3.90;;;8.50;99.90;;;;;;5052508;28;20055;-24
2022/10/07 02:38:26;;;;;;;13.73;3.58;;;8.50;99.90;;;;;;5053423;28;20048;-24
2022/10/07 02:40:58;;;;;;;7.97;3.15;;;8.50;99.90;;;;;;5053186;28;20044;-24
2022/10/07 02:43:36;;;;;;;18.35;4.28;;;8.50;99.90;;;;;;5052701;28;20475;-24
2022/10/07 02:46:11;;;;;;;17.33;4.18;;;8.40;99.90;;;;;;5053398;28;20502;-25
2022/10/07 02:48:43;;;;;;;18.73;4.03;;;8.40;99.90;;;;;;5053358;28;20398;-24
2022/10/07 02:51:17;;;;;;;18.55;3.92;;;8.30;99.90;;;;;;5053959;28;20463;-24
2022/10/07 02:53:44;;;;;;;13.13;4.20;;;8.40;99.90;;;;;;5053364;28;20103;-24
2022/10/07 02:56:11;;;;;;;18.20;4.75;;;8.30;99.90;;;;;;5054604;28;20045;-24
2022/10/07 02:58:43;;;;;;;15.45;3.70;;;8.40;99.90;;;;;;5056529;28;20129;-24
2022/10/07 03:01:11;;;;;;;17.33;4.65;;;8.30;99.90;;;;;;5057705;28;20136;-24
2022/10/07 03:03:37;;;;;;;22.20;4.20;;;8.30;99.90;;;;;;5057045;28;20059;-24
2022/10/07 03:06:03;;;;;;;16.98;4.15;;;8.20;99.90;;;;;;5057045;28;20123;-24
2022/10/07 03:08:30;;;;;;;20.65;4.10;;;8.30;99.90;;;;;;5055660;28;20084;-25
2022/10/07 03:10:55;;;;;;;15.43;4.57;;;8.30;99.90;;;;;;5057438;28;20056;-24
2022/10/07 03:13:23;;;;;;;20.75;4.93;;;8.20;99.90;;;;;;5056843;28;20045;-24
2022/10/07 03:15:50;;;;;;;17.25;3.85;;;8.30;99.90;;;;;;5057353;28;20052;-24
2022/10/07 03:18:26;;;;;;;19.92;4.90;;;8.20;99.90;;;;;;5056846;28;20045;-24
2022/10/07 03:20:55;;;;;;;16.98;4.20;;;8.30;99.90;;;;;;5057618;28;20129;-25
2022/10/07 03:23:23;;;;;;;18.38;4.25;;;8.20;99.90;;;;;;5056685;28;20049;-24
2022/10/07 03:25:53;;;;;;;17.85;4.80;;;8.20;99.90;;;;;;5055964;28;20080;-24
2022/10/07 03:28:20;;;;;;;19.05;4.78;;;8.20;99.90;;;;;;5055929;28;20045;-24
2022/10/07 03:30:47;;;;;;;14.82;4.32;;;8.10;99.90;;;;;;5057087;28;20045;-24
2022/10/07 03:33:15;;;;;;;16.60;4.07;;;8.10;99.90;;;;;;5056491;28;20049;-24
2022/10/07 03:35:40;;;;;;;19.88;4.82;;;8.00;99.90;;;;;;5056487;28;20095;-24
2022/10/07 03:38:07;;;;;;;16.25;4.90;;;8.00;99.90;;;;;;5056676;28;20072;-24
2022/10/07 03:40:37;;;;;;;18.30;4.55;;;8.00;99.90;;;;;;5056373;28;20450;-25
2022/10/07 03:43:03;;;;;;;22.38;5.20;;;7.90;99.90;;;;;;5056978;28;20136;-24
2022/10/07 03:45:29;;;;;;;17.98;4.00;;;7.90;99.90;;;;;;5055167;28;20053;-24
2022/10/07 03:47:56;;;;;;;17.13;4.78;;;7.80;99.90;;;;;;5055514;28;20045;-24
2022/10/07 03:50:22;;;;;;;15.38;4.57;;;7.80;99.90;;;;;;5056169;28;20056;-25
2022/10/07 03:52:48;;;;;;;17.38;5.13;;;7.80;99.90;;;;;;5056137;28;20044;-24
2022/10/07 03:55:15;;;;;;;21.98;6.10;;;7.80;99.90;;;;;;5055029;28;20051;-24
2022/10/07 03:57:51;;;;;;;22.17;5.72;;;7.80;99.90;;;;;;5056612;28;20080;-24
2022/10/07 04:00:19;;;;;;;15.05;4.45;;;7.90;99.90;;;;;;5056324;28;20108;-24
2022/10/07 04:02:46;;;;;;;22.55;6.75;;;7.90;99.90;;;;;;5038606;28;20088;-24
2022/10/07 04:05:14;;;;;;;22.60;6.35;;;8.00;99.90;;;;;;5055925;28;20041;-24
2022/10/07 04:07:42;;;;;;;24.13;4.93;;;7.90;99.90;;;;;;5055638;28;20037;-24
2022/10/07 04:10:09;;;;;;;18.45;5.68;;;7.90;99.90;;;;;;5055787;28;20052;-24
2022/10/07 04:12:35;;;;;;;22.02;4.90;;;7.90;99.90;;;;;;5055720;28;20128;-24
2022/10/07 04:15:00;;;;;;;21.17;5.65;;;7.90;99.90;;;;;;5055735;28;20123;-24
2022/10/07 04:17:27;;;;;;;22.17;5.25;;;7.90;99.90;;;;;;5054722;28;20486;-24
2022/10/07 04:19:53;;;;;;;23.45;6.28;;;7.80;99.90;;;;;;5055215;28;20060;-24
2022/10/07 04:22:19;;;;;;;16.50;5.78;;;7.90;99.90;;;;;;5054710;28;20049;-24
2022/10/07 04:25:32;;;;;;;20.75;5.55;;;7.90;99.90;;;;;;5054851;28;20391;-24
2022/10/07 04:27:30;;;;;;;24.40;5.50;;;7.90;99.90;;;;;;5055151;28;20049;-25
2022/10/07 04:29:56;;;;;;;23.55;6.55;;;7.90;99.90;;;;;;5022279;28;20379;-24
2022/10/07 04:32:21;;;;;;;13.32;5.28;;;7.90;99.90;;;;;;5055092;28;20082;-24
2022/10/07 04:34:51;;;;;;;24.85;6.03;;;8.00;99.90;;;;;;5055374;28;20048;-24
2022/10/07 04:37:17;;;;;;;26.63;6.47;;;8.00;99.90;;;;;;5055389;28;20052;-24
2022/10/07 04:39:42;;;;;;;25.35;7.10;;;8.00;99.90;;;;;;5037765;28;20053;-24
2022/10/07 04:43:17;;;;;;;22.58;6.63;;;8.10;99.90;;;;;;5053937;28;20056;-24
2022/10/07 04:44:54;;;;;;;32.85;7.22;;;8.10;99.90;;;;;;5055450;28;20060;-24
2022/10/07 04:47:19;;;;;;;25.60;7.28;;;8.10;99.90;;;;;;5053797;28;20049;-24
2022/10/07 04:49:45;;;;;;;22.27;5.18;;;8.20;99.90;;;;;;5055068;28;20056;-24
2022/10/07 04:52:11;;;;;;;24.48;6.35;;;8.20;99.90;;;;;;5054039;28;20170;-24
2022/10/07 04:54:38;;;;;;;26.48;6.55;;;8.30;99.90;;;;;;5053837;28;20056;-24
2022/10/07 04:57:04;;;;;;;23.20;5.95;;;8.30;99.90;;;;;;5053734;28;20051;-24
2022/10/07 04:59:30;;;;;;;19.70;5.60;;;8.30;99.90;;;;;;5053748;28;20123;-24
2022/10/07 05:01:55;;;;;;;17.88;6.05;;;8.30;99.90;;;;;;5054525;28;20048;-24
2022/10/07 05:04:21;;;;;;;25.30;6.75;;;8.30;99.90;;;;;;5054819;28;20076;-24
2022/10/07 05:06:47;;;;;;;18.40;5.35;;;8.30;99.90;;;;;;5055500;28;20123;-24
2022/10/07 05:09:13;;;;;;;21.70;5.93;;;8.30;99.90;;;;;;5054724;28;20487;-24
2022/10/07 05:11:38;;;;;;;25.73;6.22;;;8.30;99.90;;;;;;5054643;28;20049;-24
2022/10/07 05:14:04;;;;;;;19.80;6.18;;;8.30;99.90;;;;;;5054926;28;20049;-24
2022/10/07 05:16:30;;;;;;;30.83;6.30;;;8.40;99.90;;;;;;5036819;28;20049;-24
2022/10/07 05:18:56;;;;;;;29.67;7.07;;;8.40;99.90;;;;;;5053951;28;20249;-24
2022/10/07 05:21:22;;;;;;;26.88;8.25;;;8.40;99.90;;;;;;5054485;28;20052;-24
2022/10/07 05:23:47;;;;;;;20.80;6.28;;;8.40;99.90;;;;;;5053456;28;20074;-24
2022/10/07 05:26:14;;;;;;;21.27;5.80;;;8.40;99.90;;;;;;5054953;28;20059;-24
2022/10/07 05:28:40;;;;;;;27.00;7.10;;;8.50;99.90;;;;;;5054315;28;20056;-24
2022/10/07 05:31:11;;;;;;;26.67;6.22;;;8.50;99.90;;;;;;5054303;28;20053;-24
2022/10/07 05:33:38;;;;;;;23.90;5.93;;;8.50;99.90;;;;;;5054105;28;20044;-25
2022/10/07 05:36:05;;;;;;;23.95;6.15;;;8.50;99.90;;;;;;5052895;28;20049;-24
2022/10/07 05:38:32;;;;;;;25.40;7.28;;;8.50;99.90;;;;;;5053699;28;20411;-24
2022/10/07 05:41:03;;;;;;;21.58;7.00;;;8.40;99.90;;;;;;5052631;28;20043;-24
2022/10/07 05:43:31;;;;;;;20.83;6.47;;;8.50;99.90;;;;;;5054643;28;20044;-24
2022/10/07 05:46:08;;;;;;;17.60;6.55;;;8.40;99.90;;;;;;5053798;28;20352;-24
2022/10/07 05:48:35;;;;;;;27.83;7.97;;;8.50;99.90;;;;;;5053980;28;20067;-25
2022/10/07 05:51:01;;;;;;;27.90;7.22;;;8.40;99.90;;;;;;5053654;28;20565;-24
2022/10/07 05:53:28;;;;;;;28.38;6.97;;;8.40;99.90;;;;;;5054448;28;20427;-24
2022/10/07 05:55:54;;;;;;;18.02;5.85;;;8.50;99.90;;;;;;5054019;28;20076;-24
2022/10/07 05:58:21;;;;;;;27.67;7.03;;;8.50;99.90;;;;;;5053862;28;20475;-24
2022/10/07 06:00:54;;;;;;;20.98;6.75;;;8.50;99.90;;;;;;5053778;28;20123;-24
2022/10/07 06:03:20;;;;;;;22.67;7.03;;;8.50;99.90;;;;;;5054370;28;20045;-24
2022/10/07 06:05:49;;;;;;;25.60;6.95;;;8.60;99.90;;;;;;5052547;28;20132;-24
2022/10/07 06:08:17;;;;;;;22.42;8.00;;;8.60;99.90;;;;;;5053650;28;20045;-24
2022/10/07 06:13:27;;;;;;;24.48;7.03;;;8.70;99.90;;;;;;5053959;28;20045;-24
2022/10/07 06:15:52;;;;;;;24.42;6.72;;;8.80;99.90;;;;;;5054186;28;20403;-24
2022/10/07 06:18:18;;;;;;;26.73;7.35;;;8.70;99.90;;;;;;5053603;28;20128;-24
2022/10/07 06:20:55;;;;;;;22.00;6.60;;;8.90;99.90;;;;;;5053586;28;20127;-24
2022/10/07 06:23:21;;;;;;;19.88;6.65;;;8.80;99.90;;;;;;5053007;28;20392;-24
2022/10/07 06:26:04;;;;;;;22.92;5.78;;;8.80;99.90;;;;;;5054385;28;20045;-24
2022/10/07 06:28:35;;;;;;;;;;;8.90;99.90;;;;;;5052954;28;20372;-24
2022/10/07 06:31:14;;;;;;;22.00;6.25;;;8.90;99.90;;;;;;5056103;28;19921;-25
2022/10/07 06:33:41;;;;;;;24.35;6.15;;;9.00;99.90;;;;;;5058052;28;20089;-24
2022/10/07 06:36:12;;;;;;;22.23;5.88;;;9.10;99.90;;;;;;5057596;28;20554;-24
2022/10/07 06:38:46;;;;;;;21.05;5.82;;;9.10;99.90;;;;;;5058244;28;20108;-24
2022/10/07 06:41:13;;;;;;;22.10;7.18;;;9.20;99.90;;;;;;5056629;28;20189;-24
2022/10/07 06:43:39;;;;;;;15.90;5.43;;;9.20;99.90;;;;;;5058086;28;20056;-25
2022/10/07 06:46:07;;;;;;;21.20;7.40;;;9.30;99.90;;;;;;5056976;28;20044;-24
2022/10/07 06:48:34;;;;;;;29.35;6.43;;;9.40;99.90;;;;;;5056884;28;20045;-24
2022/10/07 06:51:03;;;;;;;18.60;5.57;;;9.50;99.90;;;;;;5057352;28;20048;-25
2022/10/07 06:53:29;;;;;;;16.15;5.05;;;9.50;99.90;;;;;;5058135;28;20399;-24
2022/10/07 06:55:58;;;;;;;22.77;6.20;;;9.60;99.90;;;;;;5057181;28;20084;-25
2022/10/07 06:58:24;;;;;;;22.50;6.30;;;9.60;99.90;;;;;;5056236;28;20048;-24
2022/10/07 07:00:54;;;;;;;17.63;6.38;;;9.70;99.90;;;;;;5039755;28;20048;-25
2022/10/07 07:03:21;;;;;;;26.23;6.80;;;9.70;99.90;;;;;;5057050;28;20091;-25
2022/10/07 07:05:47;;;;;;;20.58;5.65;;;9.80;99.90;;;;;;5057061;28;20041;-25
2022/10/07 07:08:14;;;;;;;20.13;6.43;;;9.90;99.90;;;;;;5057746;28;20102;-25
2022/10/07 07:10:42;;;;;;;20.27;6.50;;;10.00;99.90;;;;;;5055975;28;20060;-25
2022/10/07 07:13:09;;;;;;;19.98;5.88;;;10.00;99.90;;;;;;5056919;28;20100;-25
2022/10/07 07:15:35;;;;;;;17.17;5.40;;;10.10;99.90;;;;;;5039272;28;20491;-25
2022/10/07 07:18:02;;;;;;;21.45;5.63;;;10.20;99.90;;;;;;5056846;28;20049;-25
2022/10/07 07:20:34;;;;;;;19.10;5.40;;;10.20;99.90;;;;;;5056798;28;20045;-25
2022/10/07 07:23:05;;;;;;;20.55;5.00;;;10.30;99.90;;;;;;5038885;28;20045;-25
2022/10/07 07:25:34;;;;;;;20.50;5.25;;;10.40;99.90;;;;;;5055941;28;20099;-25
2022/10/07 07:28:00;;;;;;;20.67;5.63;;;10.40;99.90;;;;;;5056620;28;20044;-25
2022/10/07 07:30:29;;;;;;;26.17;6.78;;;10.50;99.90;;;;;;5056609;28;20045;-25
2022/10/07 07:32:56;;;;;;;16.50;5.18;;;10.50;99.90;;;;;;5056073;28;20080;-25
2022/10/07 07:35:26;;;;;;;22.67;5.47;;;10.70;99.90;;;;;;5055324;28;20080;-25
2022/10/07 07:37:53;;;;;;;18.10;5.15;;;10.70;99.90;;;;;;5056451;28;20364;-25
2022/10/07 07:40:20;;;;;;;17.15;4.97;;;10.80;99.90;;;;;;5056366;28;20049;-25
2022/10/07 07:42:47;;;;;;;22.17;4.90;;;10.80;99.90;;;;;;5056032;28;20394;-25
2022/10/07 07:45:13;;;;;;;16.20;5.03;;;10.90;99.90;;;;;;5055208;28;20462;-25
2022/10/07 07:47:39;;;;;;;22.23;4.38;;;11.00;99.90;;;;;;5056173;28;20136;-26
2022/10/07 07:50:06;;;;;;;24.55;5.65;;;11.10;99.90;;;;;;5038410;28;20131;-25
2022/10/07 07:52:32;;;;;;;22.83;6.63;;;11.20;99.90;;;;;;5056119;28;20052;-25
2022/10/07 07:54:58;;;;;;;14.80;4.70;;;11.10;99.90;;;;;;5056094;28;20044;-25
2022/10/07 07:57:26;;;;;;;19.38;4.88;;;11.30;99.90;;;;;;5056630;28;20095;-25
2022/10/07 07:59:52;;;;;;;22.27;5.00;;;11.40;99.90;;;;;;5056574;28;20048;-25
2022/10/07 08:02:19;;;;;;;18.70;5.18;;;11.40;99.90;;;;;;5055997;28;20080;-25
2022/10/07 08:04:45;;;;;;;15.57;4.90;;;11.50;99.90;;;;;;5056213;28;20463;-25
2022/10/07 08:07:11;;;;;;;19.35;4.53;;;11.60;99.90;;;;;;5055822;28;20084;-25
2022/10/07 08:09:38;;;;;;;15.23;4.40;;;11.70;99.90;;;;;;5055866;28;20045;-25
2022/10/07 08:12:04;;;;;;;30.83;6.28;;;11.80;99.90;;;;;;5056317;28;20464;-25
2022/10/07 08:14:30;;;;;;;16.00;4.38;;;11.90;99.90;;;;;;5056603;28;20094;-25
2022/10/07 08:16:58;;;;;;;18.35;5.00;;;12.00;99.90;;;;;;5055710;28;20624;-25
2022/10/07 08:19:28;;;;;;;22.65;4.75;;;12.10;99.90;;;;;;5055344;28;20414;-26
2022/10/07 08:21:54;;;;;;;15.93;4.15;;;12.20;99.90;;;;;;5055598;28;20049;-25
2022/10/07 08:24:24;;;;;;;21.77;4.28;;;12.30;99.90;;;;;;5054605;28;20539;-25
2022/10/07 08:26:52;;;;;;;16.98;4.35;;;12.40;99.90;;;;;;5054827;28;20498;-25
2022/10/07 08:29:19;;;;;;;16.38;3.72;;;12.50;99.90;;;;;;5055589;28;20056;-25
2022/10/07 08:31:46;;;;;;;14.32;4.55;;;12.60;99.90;;;;;;5054288;28;20048;-25
2022/10/07 08:34:12;;;;;;;22.83;3.92;;;12.70;99.90;;;;;;5055415;28;20045;-25
2022/10/07 08:36:39;;;;;;;22.63;4.22;;;12.80;99.90;;;;;;5054719;28;20056;-25
2022/10/07 08:39:06;;;;;;;18.92;4.13;;;13.00;99.90;;;;;;5055313;28;20128;-26
2022/10/07 08:41:57;;;;;;;17.25;3.65;;;13.00;99.90;;;;;;5055225;28;20072;-25
2022/10/07 08:44:34;;;;;;;17.25;3.20;;;13.10;99.90;;;;;;5053652;28;20048;-26
2022/10/07 08:47:14;;;;;;;18.02;3.55;;;13.20;99.90;;;;;;5054419;28;20040;-26
2022/10/07 08:49:56;;;;;;;21.83;4.68;;;13.30;99.90;;;;;;5055488;28;20072;-26
2022/10/07 08:52:25;;;;;;;15.40;4.50;;;13.50;99.90;;;;;;5054392;28;20051;-26
2022/10/07 08:54:51;;;;;;;19.85;3.58;;;13.50;99.90;;;;;;5054012;28;20057;-25
2022/10/07 08:57:30;;;;;;;16.52;3.88;;;13.60;99.90;;;;;;5054989;28;20041;-26
2022/10/07 09:00:03;;;;;;;21.55;3.97;;;13.90;99.90;;;;;;5055750;28;20056;-26
2022/10/07 09:03:13;;;;;;;13.45;3.95;;;14.00;99.90;;;;;;5038651;28;20405;-26
2022/10/07 09:05:43;;;;;;;20.73;4.57;;;14.00;99.90;;;;;;5053788;28;20072;-26
2022/10/07 09:08:20;;;;;;;16.10;3.28;;;14.30;99.90;;;;;;5053241;28;20041;-26
2022/10/07 09:10:52;;;;;;;15.75;3.40;;;14.80;99.90;;;;;;5055063;28;20049;-26
2022/10/07 09:13:19;;;;;;;13.75;3.28;;;15.20;1.00;;;;;;5054730;28;20049;-26
2022/10/07 09:16:00;;;;;;;14.73;3.08;;;15.50;1.00;;;;;;5053194;28;20053;-26
2022/10/07 09:18:38;;;;;;;26.65;5.05;;;15.50;99.90;;;;;;5054194;28;20517;-27
2022/10/07 09:21:15;;;;;;;13.35;3.35;;;15.80;99.90;;;;;;5054165;28;20048;-26
2022/10/07 09:23:42;;;;;;;21.83;5.00;;;16.00;99.90;;;;;;5054373;28;20060;-26
2022/10/07 09:26:15;;;;;;;16.35;3.83;;;16.60;99.90;;;;;;5054396;28;20049;-26
2022/10/07 09:28:41;;;;;;;21.08;4.72;;;16.60;99.90;;;;;;5055197;28;20116;-26
2022/10/07 09:31:10;;;;;;;14.23;3.92;;;16.80;99.90;;;;;;5054861;28;20044;-26
2022/10/07 09:33:42;;;;;;;13.88;3.25;;;16.70;96.00;;;;;;5054277;28;20102;-26
2022/10/07 09:36:11;;;;;;;18.53;3.90;;;16.50;1.00;;;;;;5054022;28;20495;-25
2022/10/07 09:38:42;;;;;;;17.42;4.18;;;16.60;98.10;;;;;;5054232;28;20045;-26
2022/10/07 09:41:20;;;;;;;15.85;4.22;;;16.70;1.00;;;;;;5053837;28;20402;-26
2022/10/07 09:43:52;;;;;;;17.95;4.45;;;16.70;99.90;;;;;;5053745;28;20075;-26
2022/10/07 09:46:48;;;;;;;16.02;3.50;;;16.40;99.90;;;;;;5054388;28;20044;-27
2022/10/07 09:49:28;;;;;;;13.13;2.97;;;16.40;99.90;;;;;;5052844;28;20051;-26
2022/10/07 09:52:11;;;;;;;16.00;3.47;;;16.60;99.90;;;;;;5054855;28;20045;-26
2022/10/07 09:54:37;;;;;;;17.48;3.95;;;16.70;99.90;;;;;;5036731;28;20138;-26
2022/10/07 09:57:04;;;;;;;14.05;3.58;;;16.80;48.10;;;;;;5052867;28;20490;-26
2022/10/07 09:59:35;;;;;;;12.30;3.80;;;17.00;1.00;;;;;;5052703;28;20049;-26
2022/10/07 10:02:12;;;;;;;15.95;3.70;;;17.20;1.00;;;;;;5052601;28;20041;-26
2022/10/07 10:04:51;;;;;;;17.42;4.15;;;17.20;1.00;;;;;;5054220;28;20049;-26
2022/10/07 10:07:26;;;;;;;17.20;3.70;;;17.10;99.90;;;;;;5054269;28;20138;-26
2022/10/07 10:09:55;;;;;;;16.27;3.83;;;17.50;1.00;;;;;;5052554;28;20048;-26
2022/10/07 10:12:23;;;;;;;9.10;2.88;;;17.70;99.90;;;;;;5053693;28;20045;-26
2022/10/07 10:14:51;;;;;;;23.35;4.32;;;17.60;99.90;;;;;;5053677;28;20052;-26
2022/10/07 10:17:26;;;;;;;11.88;3.05;;;17.50;99.90;;;;;;5053623;28;20033;-26
2022/10/07 10:19:52;;;;;;;13.05;3.30;;;17.20;99.90;;;;;;5053691;28;20053;-26
2022/10/07 10:22:25;;;;;;;14.85;3.10;;;17.20;99.90;;;;;;5052651;28;20051;-26
2022/10/07 10:28:02;;;;;;;15.80;2.97;;;16.80;99.90;;;;;;5053471;28;19967;-26
2022/10/07 10:30:29;;;;;;;14.95;3.15;;;17.30;1.00;;;;;;5053550;28;20088;-26
2022/10/07 10:33:39;;;;;;;15.18;3.25;;;17.70;99.90;;;;;;5053570;28;20059;-26
2022/10/07 10:36:19;;;;;;;10.15;2.75;;;17.80;1.00;;;;;;5052212;28;20064;-26
2022/10/07 10:38:49;;;;;;;16.13;3.08;;;17.80;1.00;;;;;;5054287;28;20082;-26
2022/10/07 10:41:18;;;;;;;14.70;2.97;;;17.50;1.00;;;;;;5053110;28;20049;-26
2022/10/07 10:44:03;;;;;;;14.63;2.95;;;17.00;99.90;;;;;;5053456;28;20061;-26
2022/10/07 10:46:42;;;;;;;12.02;2.47;;;16.90;1.00;;;;;;5053911;28;20087;-26
2022/10/07 10:49:24;;;;;;;9.15;2.10;;;16.70;1.00;;;;;;5052930;28;20047;-26
2022/10/07 10:52:01;;;;;;;15.68;4.10;;;16.60;99.90;;;;;;5052966;28;20049;-26
2022/10/07 10:55:06;;;;;;;12.43;2.80;;;16.40;99.90;;;;;;5036631;28;20103;-26
2022/10/07 10:57:32;;;;;;;18.60;3.00;;;16.80;1.00;;;;;;5035693;28;20394;-26
2022/10/07 11:00:11;;;;;;;13.82;2.50;;;17.40;88.90;;;;;;5051971;28;20128;-26
2022/10/07 11:02:52;;;;;;;17.17;2.97;;;17.80;93.40;;;;;;5052247;28;20132;-26
2022/10/07 11:05:29;;;;;;;8.48;1.88;;;17.90;99.90;;;;;;5053520;28;20154;-26
2022/10/07 11:08:16;;;;;;;11.02;2.55;;;17.50;1.60;;;;;;5053090;28;20041;-26
2022/10/07 11:10:54;;;;;;;13.43;2.90;;;17.20;99.90;;;;;;5053085;28;20115;-26
2022/10/07 11:13:38;;;;;;;14.43;2.75;;;17.60;99.90;;;;;;5053724;28;20126;-26
2022/10/07 11:16:13;;;;;;;10.05;2.05;;;18.00;99.90;;;;;;5053142;28;20129;-27
2022/10/07 11:19:05;;;;;;;11.68;2.00;;;18.60;99.90;;;;;;5057192;28;20049;-26
2022/10/07 11:21:31;;;;;;;13.80;2.40;;;18.80;99.90;;;;;;5039865;28;20117;-27
2022/10/07 11:24:12;;;;;;;17.65;2.97;;;18.60;99.90;;;;;;5056713;28;20491;-26
2022/10/07 11:26:49;;;;;;;12.30;2.40;;;18.80;99.90;;;;;;5055988;28;20053;-26
2022/10/07 11:29:27;;;;;;;10.98;2.72;;;19.10;99.90;;;;;;5056018;28;20072;-26
2022/10/07 11:32:11;;;;;;;16.92;4.03;;;18.80;99.90;;;;;;5057258;28;20375;-27
2022/10/07 11:35:02;;;;;;;12.55;2.38;;;18.50;99.90;;;;;;5057136;28;20049;-26
2022/10/07 11:37:42;;;;;;;14.00;3.13;;;18.30;99.90;;;;;;5056742;28;20483;-26
2022/10/07 11:40:08;;;;;;;13.05;2.33;;;17.90;99.90;;;;;;5057325;28;20393;-26
2022/10/07 11:42:44;;;;;;;13.40;2.20;;;17.70;49.50;;;;;;5056481;28;20065;-27
2022/10/07 11:45:41;;;;;;;11.60;2.28;;;17.90;99.90;;;;;;5055692;28;20498;-26
2022/10/07 11:48:13;;;;;;;15.57;2.42;;;18.10;29.90;;;;;;5051711;28;20053;-27
2022/10/07 11:50:50;;;;;;;14.25;2.38;;;17.90;99.90;;;;;;5055155;28;20166;-26
2022/10/07 11:53:22;;;;;;;14.93;2.60;;;17.70;91.50;;;;;;5055928;28;20487;-26
2022/10/07 11:56:02;;;;;;;12.48;2.67;;;17.60;1.00;;;;;;5056431;28;20437;-26
2022/10/07 11:58:35;;;;;;;10.70;2.50;;;17.70;1.00;;;;;;5056974;28;20048;-27
2022/10/07 12:01:29;;;;;;;14.82;2.38;;;17.60;1.00;;;;;;5056135;28;20053;-26
2022/10/07 12:04:00;;;;;;;11.10;2.42;;;17.40;1.00;;;;;;5056090;28;20132;-26
2022/10/07 12:06:27;;;;;;;10.82;2.30;;;17.30;93.80;;;;;;5055964;28;20049;-26
2022/10/07 12:08:53;;;;;;;11.40;2.15;;;17.20;99.90;;;;;;5055190;28;20048;-26
2022/10/07 12:11:19;;;;;;;13.50;2.55;;;17.30;99.90;;;;;;5055833;28;20041;-26
2022/10/07 12:13:49;;;;;;;11.10;2.85;;;17.50;56.20;;;;;;5054811;28;20131;-26
2022/10/07 12:16:27;;;;;;;11.93;2.03;;;17.60;99.90;;;;;;5054807;28;20064;-26
2022/10/07 12:19:16;;;;;;;17.13;2.78;;;17.60;99.90;;;;;;5055718;28;20037;-26
2022/10/07 12:22:03;;;;;;;11.07;1.65;;;17.40;99.90;;;;;;5052486;28;20056;-26
2022/10/07 12:24:36;;;;;;;15.70;3.97;;;17.20;16.90;;;;;;5055668;28;20059;-26
2022/10/07 12:27:25;;;;;;;;;;;17.00;71.10;;;;;;5056639;28;20041;-27
2022/10/07 12:30:01;;;;;;;10.60;2.45;;;17.00;87.90;;;;;;5055039;28;20041;-26
2022/10/07 12:32:51;;;;;;;14.77;2.63;;;16.80;99.90;;;;;;5055404;28;20053;-26
2022/10/07 12:35:41;;;;;;;15.13;2.63;;;16.80;99.90;;;;;;5055948;28;20429;-26
2022/10/07 12:38:22;;;;;;;10.60;2.83;;;16.80;99.90;;;;;;5035044;28;20053;-26
2022/10/07 12:41:11;;;;;;;9.75;2.92;;;16.90;1.00;;;;;;5055821;28;20048;-26
2022/10/07 12:43:54;;;;;;;11.23;2.63;;;16.90;99.90;;;;;;5056334;28;20352;-27
2022/10/07 12:46:22;;;;;;;11.68;2.00;;;17.00;99.90;;;;;;5054703;28;20049;-26
2022/10/07 12:48:57;;;;;;;9.50;1.98;;;17.10;99.90;;;;;;5053782;28;20482;-26
2022/10/07 12:51:39;;;;;;;11.40;2.70;;;17.10;54.10;;;;;;5055975;28;20084;-26
2022/10/07 12:54:21;;;;;;;11.75;1.85;;;17.10;99.90;;;;;;5055069;28;20048;-26
2022/10/07 12:56:48;;;;;;;11.45;1.92;;;17.00;99.90;;;;;;5055015;28;20049;-26
2022/10/07 13:02:42;;;;;;;10.57;1.95;;;16.80;36.90;;;;;;5054942;28;20107;-26
2022/10/07 13:05:32;;;;;;;9.27;2.10;;;16.80;1.00;;;;;;5054709;28;20092;-26
2022/10/07 13:08:12;;;;;;;8.38;1.55;;;16.80;21.20;;;;;;5054739;28;20127;-27
2022/10/07 13:10:46;;;;;;;10.15;1.35;;;16.70;1.00;;;;;;5053572;28;20087;-27
2022/10/07 13:13:24;;;;;;;12.48;2.05;;;16.70;1.00;;;;;;5053739;28;20128;-26
2022/10/07 13:16:00;;;;;;;10.93;1.67;;;16.70;99.90;;;;;;5055302;28;20110;-27